Time;durP1;ratioP1;P1;durP2;ratioP2;P2;SDS_P1;SDS_P2;PMS_P1;PMS_P2;Temp;Humidity;BMP_temperature;BMP_pressure;BME280_temperature;BME280_humidity;BME280_pressure;Samples;Min_cycle;Max_cycle;Signal;HPM_P1;HPM_P2
2024/01/05 00:03:53;;;;;;;9.60;1.90;;;;;8.80;99234.00;;;;9870297;29;20298;-83
2024/01/05 00:08:55;;;;;;;11.80;2.10;;;;;8.90;99229.00;;;;9886594;29;20320;-87
2024/01/05 00:13:57;;;;;;;11.40;2.10;;;;;8.90;99231.00;;;;9893426;29;20261;-84
2024/01/05 00:18:58;;;;;;;7.73;1.53;;;;;8.90;99225.00;;;;9918253;29;20243;-85
2024/01/05 00:24:01;;;;;;;8.37;1.80;;;;;8.90;99232.00;;;;9853375;29;20255;-87
2024/01/05 00:29:02;;;;;;;9.83;1.87;;;;;8.90;99223.00;;;;9885484;29;20504;-89
2024/01/05 00:34:03;;;;;;;5.17;1.53;;;;;8.90;99220.00;;;;9887088;29;20971;-89
2024/01/05 00:39:05;;;;;;;11.30;2.67;;;;;9.00;99223.00;;;;9867729;29;20239;-88
2024/01/05 00:44:07;;;;;;;5.13;1.40;;;;;9.20;99218.00;;;;9847506;29;20240;-82
2024/01/05 00:49:08;;;;;;;7.27;1.50;;;;;9.20;99199.00;;;;9873660;29;20235;-81
2024/01/05 00:54:09;;;;;;;5.83;1.67;;;;;9.30;99200.00;;;;9832324;29;20227;-80
2024/01/05 00:59:11;;;;;;;3.87;1.43;;;;;9.30;99195.00;;;;9835090;29;20308;-79
2024/01/05 01:04:14;;;;;;;12.30;1.70;;;;;9.40;99174.00;;;;9877039;29;20239;-78
2024/01/05 01:09:15;;;;;;;6.47;1.40;;;;;9.40;99184.00;;;;9851892;29;20238;-79
2024/01/05 01:14:17;;;;;;;5.07;1.60;;;;;9.50;99163.00;;;;9871734;29;20238;-83
2024/01/05 01:19:18;;;;;;;7.67;1.90;;;;;9.50;99167.00;;;;9865469;29;20228;-81
2024/01/05 01:24:19;;;;;;;8.67;1.40;;;;;9.50;99150.00;;;;9848684;29;20236;-83
2024/01/05 01:29:21;;;;;;;8.00;1.80;;;;;9.50;99137.00;;;;9836656;29;20244;-80
2024/01/05 01:34:22;;;;;;;5.73;1.60;;;;;9.50;99147.00;;;;9865879;29;20263;-80
2024/01/05 01:39:23;;;;;;;10.97;1.80;;;;;9.50;99138.00;;;;9862425;29;20236;-84
2024/01/05 01:44:25;;;;;;;5.90;1.50;;;;;9.50;99127.00;;;;9853863;29;20240;-80
2024/01/05 01:49:26;;;;;;;5.80;1.63;;;;;9.40;99119.00;;;;9874084;29;20322;-81
2024/01/05 01:54:32;;;;;;;5.23;1.57;;;;;9.50;99122.00;;;;9883534;29;20239;-83
2024/01/05 01:59:35;;;;;;;7.27;1.83;;;;;9.50;99124.00;;;;9937042;29;20226;-84
2024/01/05 02:04:37;;;;;;;8.87;1.40;;;;;9.50;99118.00;;;;9887516;29;20285;-85
2024/01/05 02:09:40;;;;;;;4.80;1.63;;;;;9.50;99113.00;;;;9858052;29;20239;-85
2024/01/05 02:14:41;;;;;;;4.23;1.00;;;;;9.60;99107.00;;;;9862426;29;20322;-84
2024/01/05 02:20:03;;;;;;;4.90;1.40;;;;;9.60;99097.00;;;;9879176;29;20237;-85
2024/01/05 02:25:04;;;;;;;2.40;0.80;;;;;9.60;99091.00;;;;9872849;29;20234;-83
2024/01/05 02:30:06;;;;;;;5.70;1.33;;;;;9.60;99079.00;;;;9867237;29;20247;-84
2024/01/05 02:35:07;;;;;;;5.97;1.47;;;;;9.50;99072.00;;;;9866444;29;20947;-84
2024/01/05 02:40:11;;;;;;;6.83;1.33;;;;;9.50;99071.00;;;;9860752;29;20314;-83
2024/01/05 02:45:12;;;;;;;7.57;1.67;;;;;9.50;99060.00;;;;9865190;29;20346;-84
2024/01/05 02:50:13;;;;;;;4.17;1.37;;;;;9.50;99056.00;;;;9875373;29;20274;-83
2024/01/05 02:55:14;;;;;;;3.73;0.90;;;;;9.50;99047.00;;;;9856209;29;20270;-83
2024/01/05 03:00:16;;;;;;;6.80;1.30;;;;;9.50;99037.00;;;;9835309;29;20266;-86
2024/01/05 03:05:17;;;;;;;5.10;0.87;;;;;9.50;99034.00;;;;9868238;29;20604;-87
2024/01/05 03:10:18;;;;;;;5.73;1.20;;;;;9.50;99028.00;;;;9875970;29;20699;-86
2024/01/05 03:15:20;;;;;;;3.93;1.03;;;;;9.50;99020.00;;;;9880758;29;20752;-88
2024/01/05 03:20:21;;;;;;;5.90;1.50;;;;;9.50;99010.00;;;;9880378;29;20258;-86
2024/01/05 03:25:22;;;;;;;6.33;1.23;;;;;9.50;99000.00;;;;9880610;29;20239;-88
2024/01/05 03:30:25;;;;;;;6.53;1.60;;;;;9.40;98988.00;;;;9875207;29;20267;-86
2024/01/05 03:35:26;;;;;;;7.37;2.03;;;;;9.40;98982.00;;;;9849470;29;20224;-88
2024/01/05 03:40:27;;;;;;;5.93;0.93;;;;;9.10;98974.00;;;;10117824;24;20247;-87
2024/01/05 03:45:29;;;;;;;4.93;0.93;;;;;9.10;98993.00;;;;9882987;29;20303;-88
2024/01/05 03:50:30;;;;;;;9.97;1.50;;;;;9.10;98987.00;;;;9869657;29;20254;-88
2024/01/05 03:55:31;;;;;;;5.30;1.30;;;;;9.10;98986.00;;;;9849830;29;20289;-87
2024/01/05 04:00:33;;;;;;;4.40;1.30;;;;;9.00;98984.00;;;;9843153;29;20255;-85
2024/01/05 04:05:35;;;;;;;5.70;0.90;;;;;9.00;98971.00;;;;9832572;29;20240;-87
2024/01/05 04:10:37;;;;;;;2.13;0.50;;;;;8.90;98972.00;;;;9856035;29;20370;-87
2024/01/05 04:15:39;;;;;;;4.00;1.30;;;;;9.00;98959.00;;;;9873817;29;20699;-87
2024/01/05 04:20:41;;;;;;;2.20;0.63;;;;;9.00;98968.00;;;;9859994;29;20238;-87
2024/01/05 04:25:42;;;;;;;1.67;0.30;;;;;9.00;98968.00;;;;9867888;29;20239;-88
2024/01/05 04:30:44;;;;;;;1.67;0.40;;;;;8.90;98955.00;;;;9860657;29;20251;-87
2024/01/05 04:35:46;;;;;;;1.23;0.40;;;;;8.80;98946.00;;;;9863776;29;20239;-86
2024/01/05 04:40:47;;;;;;;0.40;0.40;;;;;8.70;98963.00;;;;9859908;29;20251;-87
2024/01/05 04:45:48;;;;;;;0.97;0.37;;;;;8.70;98971.00;;;;9856453;29;21107;-86
2024/01/05 04:50:50;;;;;;;0.50;0.50;;;;;8.60;98970.00;;;;9852520;29;20291;-86
2024/01/05 04:55:51;;;;;;;0.40;0.40;;;;;8.40;98977.00;;;;9855198;29;20912;-85
2024/01/05 05:00:53;;;;;;;1.77;0.30;;;;;8.30;98960.00;;;;9865664;29;20792;-86
2024/01/05 05:05:54;;;;;;;2.90;0.40;;;;;8.20;98968.00;;;;9861580;29;20250;-87
2024/01/05 05:10:56;;;;;;;1.30;0.50;;;;;8.10;98960.00;;;;9860346;29;20255;-87
2024/01/05 05:15:57;;;;;;;0.30;0.30;;;;;8.00;98957.00;;;;9853257;29;20240;-87
2024/01/05 05:20:59;;;;;;;1.30;0.50;;;;;8.00;98944.00;;;;9855357;29;20238;-85
2024/01/05 05:26:01;;;;;;;1.33;0.43;;;;;7.90;98967.00;;;;9852298;29;20665;-85
2024/01/05 05:31:02;;;;;;;0.20;0.20;;;;;7.80;98948.00;;;;9851069;29;20242;-83
2024/01/05 05:36:04;;;;;;;1.00;0.30;;;;;7.80;98957.00;;;;9851278;29;20239;-84
2024/01/05 05:41:05;;;;;;;1.90;0.40;;;;;7.80;98943.00;;;;9845013;29;20231;-83
2024/01/05 05:46:07;;;;;;;3.07;0.57;;;;;7.70;98953.00;;;;9832357;29;20239;-83
2024/01/05 05:51:08;;;;;;;1.43;0.33;;;;;7.70;98952.00;;;;9866592;29;20985;-84
2024/01/05 05:56:09;;;;;;;0.53;0.30;;;;;7.70;98943.00;;;;9858668;29;20230;-82
2024/01/05 06:01:13;;;;;;;0.77;0.40;;;;;7.60;98948.00;;;;9860884;29;20755;-85
2024/01/05 06:06:19;;;;;;;0.47;0.47;;;;;7.50;98946.00;;;;9851029;29;20950;-83
2024/01/05 06:11:21;;;;;;;0.33;0.30;;;;;7.50;98957.00;;;;9833131;29;20258;-83
2024/01/05 06:16:22;;;;;;;0.57;0.30;;;;;7.50;98947.00;;;;9831493;29;20231;-84
2024/01/05 06:21:23;;;;;;;0.87;0.40;;;;;7.50;98954.00;;;;9832701;29;20247;-83
2024/01/05 06:26:24;;;;;;;0.30;0.30;;;;;7.50;98947.00;;;;9855416;29;20243;-84
2024/01/05 06:31:26;;;;;;;0.67;0.27;;;;;7.40;98953.00;;;;9831263;29;20227;-84
2024/01/05 06:36:27;;;;;;;0.73;0.60;;;;;7.20;98955.00;;;;9836927;29;20231;-79
2024/01/05 06:41:28;;;;;;;1.70;0.40;;;;;7.10;98945.00;;;;9840990;29;20232;-80
2024/01/05 06:46:30;;;;;;;0.77;0.50;;;;;7.00;98959.00;;;;9826264;29;20339;-81
2024/01/05 06:51:38;;;;;;;2.33;0.70;;;;;7.10;98962.00;;;;9832476;29;20346;-79
2024/01/05 06:56:42;;;;;;;1.57;0.50;;;;;7.10;98977.00;;;;9846187;29;20235;-84
2024/01/05 07:01:43;;;;;;;0.73;0.30;;;;;7.10;98977.00;;;;9836677;29;20663;-80
2024/01/05 07:06:44;;;;;;;1.40;0.60;;;;;7.00;98989.00;;;;9827485;29;20239;-81
2024/01/05 07:11:45;;;;;;;0.47;0.37;;;;;6.80;98992.00;;;;9860667;29;20682;-82
2024/01/05 07:16:48;;;;;;;0.40;0.30;;;;;6.70;98990.00;;;;9832305;29;20315;-81
2024/01/05 07:21:49;;;;;;;1.07;0.40;;;;;6.60;99003.00;;;;9843937;29;20334;-84
2024/01/05 07:26:50;;;;;;;2.13;0.60;;;;;6.50;99007.00;;;;9843054;29;20255;-80
2024/01/05 07:32:04;;;;;;;1.27;0.60;;;;;6.40;99005.00;;;;9861273;29;20247;-79
2024/01/05 07:37:05;;;;;;;1.03;0.40;;;;;6.30;99014.00;;;;9843105;29;20259;-80
2024/01/05 07:42:07;;;;;;;3.70;0.70;;;;;6.30;99022.00;;;;9866314;29;20250;-88
2024/01/05 07:52:59;;;;;;;1.30;0.33;;;;;6.10;99054.00;;;;9883271;29;20240;-89
2024/01/05 07:58:00;;;;;;;2.13;0.60;;;;;5.90;99044.00;;;;9863000;29;20232;-85
2024/01/05 08:03:03;;;;;;;1.37;0.50;;;;;5.80;99062.00;;;;9828603;29;20231;-85
2024/01/05 08:08:05;;;;;;;1.90;0.60;;;;;6.00;99065.00;;;;10035416;24;20227;-86
2024/01/05 08:13:06;;;;;;;2.93;0.63;;;;;6.20;99060.00;;;;9866399;29;20251;-85
2024/01/05 08:18:09;;;;;;;2.33;0.80;;;;;6.30;99071.00;;;;9862793;29;20265;-84
2024/01/05 08:23:11;;;;;;;2.40;0.87;;;;;6.50;99069.00;;;;9906539;29;20235;-85
2024/01/05 08:28:13;;;;;;;1.87;0.70;;;;;6.50;99084.00;;;;9966927;24;20224;-85
2024/01/05 08:33:14;;;;;;;3.23;0.80;;;;;6.50;99078.00;;;;10067204;24;20238;-85
2024/01/05 08:38:16;;;;;;;4.30;1.30;;;;;6.40;99083.00;;;;9879321;29;20269;-85
2024/01/05 08:43:17;;;;;;;3.70;1.10;;;;;6.50;99094.00;;;;10002897;24;20267;-86
2024/01/05 08:48:18;;;;;;;3.97;1.67;;;;;6.50;99106.00;;;;9855269;24;20247;-88
2024/01/05 08:53:22;;;;;;;1.93;1.23;;;;;6.60;99108.00;;;;9843621;29;20392;-86
2024/01/05 08:58:24;;;;;;;3.63;1.67;;;;;7.10;99110.00;;;;9853960;29;20231;-87
2024/01/05 09:03:25;;;;;;;2.97;1.00;;;;;7.40;99136.00;;;;9837615;29;20301;-88
2024/01/05 09:08:26;;;;;;;2.60;1.20;;;;;7.20;99141.00;;;;9838378;29;20234;-88
2024/01/05 09:13:27;;;;;;;1.87;1.40;;;;;7.00;99140.00;;;;9853181;29;20235;-86
2024/01/05 09:18:33;;;;;;;2.80;1.20;;;;;6.90;99140.00;;;;9853335;29;20239;-86
2024/01/05 09:23:35;;;;;;;1.73;1.03;;;;;6.80;99145.00;;;;9838404;29;20227;-87
2024/01/05 09:28:36;;;;;;;4.93;1.60;;;;;6.80;99148.00;;;;9843416;29;20218;-89
2024/01/05 09:33:37;;;;;;;4.13;1.60;;;;;6.90;99159.00;;;;9841793;29;20243;-87
2024/01/05 09:38:39;;;;;;;4.83;1.33;;;;;7.10;99166.00;;;;9850364;29;20236;-85
2024/01/05 09:44:04;;;;;;;3.13;1.40;;;;;7.60;99190.00;;;;9849595;29;20230;-87
2024/01/05 09:49:25;;;;;;;6.00;1.50;;;;;8.10;99197.00;;;;9860921;29;20643;-88
2024/01/05 09:54:47;;;;;;;4.30;1.17;;;;;7.90;99199.00;;;;9843990;29;20236;-89
2024/01/05 10:00:13;;;;;;;7.27;1.40;;;;;8.00;99203.00;;;;9849454;29;20235;-85
2024/01/05 10:05:34;;;;;;;6.33;1.57;;;;;8.40;99215.00;;;;9848690;29;20232;-83
2024/01/05 10:11:01;;;;;;;4.43;1.43;;;;;8.10;99218.00;;;;9843896;29;20270;-86
2024/01/05 10:16:26;;;;;;;10.43;1.67;;;;;7.90;99221.00;;;;9835136;29;20227;-84
2024/01/05 10:21:48;;;;;;;4.33;1.70;;;;;7.70;99208.00;;;;9829673;29;20247;-85
2024/01/05 10:27:11;;;;;;;6.53;2.13;;;;;7.50;99205.00;;;;9849058;29;20250;-84
2024/01/05 10:32:32;;;;;;;10.67;2.00;;;;;7.30;99196.00;;;;9857668;29;20235;-87
2024/01/05 10:38:09;;;;;;;3.67;1.40;;;;;7.30;99210.00;;;;9842457;30;20243;-84
2024/01/05 10:43:32;;;;;;;4.27;1.40;;;;;7.50;99209.00;;;;9841410;29;20323;-87
2024/01/05 10:48:56;;;;;;;6.13;1.70;;;;;7.30;99209.00;;;;9844552;29;20623;-85
2024/01/05 10:54:17;;;;;;;4.43;1.70;;;;;7.00;99202.00;;;;9841002;29;20243;-86
2024/01/05 10:59:39;;;;;;;6.73;1.80;;;;;7.00;99207.00;;;;9857056;29;20235;-86
2024/01/05 11:05:07;;;;;;;4.17;1.50;;;;;7.20;99216.00;;;;9833817;29;20916;-85
2024/01/05 11:10:35;;;;;;;6.43;1.83;;;;;7.30;99222.00;;;;9839634;29;20235;-79
2024/01/05 11:16:24;;;;;;;5.20;2.23;;;;;7.50;99217.00;;;;9836846;29;20585;-79
2024/01/05 11:22:08;;;;;;;5.47;2.77;;;;;7.50;99217.00;;;;9850123;29;20250;-79
2024/01/05 11:27:34;;;;;;;4.43;2.40;;;;;7.40;99222.00;;;;9845051;29;20247;-79
2024/01/05 11:32:56;;;;;;;6.37;2.50;;;;;7.40;99216.00;;;;9870006;29;20262;-79
2024/01/05 11:38:25;;;;;;;5.50;2.40;;;;;7.50;99220.00;;;;9851117;29;20238;-80
2024/01/05 11:43:39;;;;;;;5.57;2.67;;;;;7.60;99210.00;;;;9829777;29;22245;-79
2024/01/05 11:49:02;;;;;;;7.23;2.40;;;;;7.60;99230.00;;;;9854801;29;20242;-81
2024/01/05 11:54:23;;;;;;;5.27;2.97;;;;;7.60;99228.00;;;;9845404;29;20304;-79
2024/01/05 11:59:53;;;;;;;3.93;2.67;;;;;7.70;99229.00;;;;9844767;29;20235;-80
2024/01/05 12:05:16;;;;;;;7.67;3.00;;;;;7.90;99226.00;;;;9846204;29;20255;-82
2024/01/05 12:10:39;;;;;;;5.77;2.60;;;;;8.00;99226.00;;;;9842967;29;20328;-79
2024/01/05 12:16:05;;;;;;;5.50;3.40;;;;;8.10;99233.00;;;;9857629;29;20245;-81
2024/01/05 12:21:27;;;;;;;9.37;3.70;;;;;8.10;99234.00;;;;9852337;29;20227;-79
2024/01/05 12:26:52;;;;;;;4.60;2.80;;;;;8.00;99235.00;;;;9857402;29;20238;-80
2024/01/05 12:32:13;;;;;;;5.00;2.70;;;;;8.20;99223.00;;;;9848444;29;21269;-81
2024/01/05 12:37:34;;;;;;;5.53;2.80;;;;;8.10;99242.00;;;;9864883;29;20255;-80
2024/01/05 12:42:56;;;;;;;10.07;2.90;;;;;8.10;99254.00;;;;9840630;29;20231;-79
2024/01/05 12:48:17;;;;;;;5.23;2.80;;;;;7.90;99254.00;;;;9848984;29;20308;-80
2024/01/05 12:53:38;;;;;;;3.93;2.73;;;;;7.80;99252.00;;;;9852854;29;20236;-79
2024/01/05 12:59:02;;;;;;;7.70;2.47;;;;;7.80;99255.00;;;;9841565;29;20239;-79
2024/01/05 13:04:31;;;;;;;5.83;2.70;;;;;7.60;99257.00;;;;9855692;29;20266;-79
2024/01/05 13:10:00;;;;;;;5.00;2.93;;;;;7.80;99269.00;;;;9848472;29;20223;-80
2024/01/05 13:15:21;;;;;;;5.03;2.77;;;;;7.80;99253.00;;;;9834474;29;20246;-78
2024/01/05 13:20:42;;;;;;;7.73;2.90;;;;;8.00;99268.00;;;;9847285;29;20242;-80
2024/01/05 13:26:03;;;;;;;4.20;2.27;;;;;7.90;99262.00;;;;9848087;29;20938;-81
2024/01/05 13:31:25;;;;;;;4.30;2.40;;;;;7.80;99274.00;;;;9857345;29;20303;-86
2024/01/05 13:36:47;;;;;;;6.87;2.70;;;;;7.80;99286.00;;;;9885128;29;20236;-86
2024/01/05 13:42:10;;;;;;;3.53;2.83;;;;;7.80;99277.00;;;;9866814;29;21008;-87
2024/01/05 13:47:35;;;;;;;4.00;2.40;;;;;7.70;99271.00;;;;9883750;29;20837;-87
2024/01/05 13:52:56;;;;;;;5.33;2.83;;;;;7.70;99288.00;;;;9868140;30;20248;-87
2024/01/05 13:58:17;;;;;;;4.00;2.60;;;;;7.70;99307.00;;;;9873519;29;20239;-86
2024/01/05 14:03:38;;;;;;;7.30;2.90;;;;;7.60;99297.00;;;;9861870;29;20239;-87
2024/01/05 14:08:59;;;;;;;3.60;2.40;;;;;7.80;99310.00;;;;9859730;29;20372;-88
2024/01/05 14:14:21;;;;;;;6.67;2.50;;;;;7.90;99310.00;;;;9870169;24;20228;-86
2024/01/05 14:19:42;;;;;;;7.50;3.07;;;;;8.00;99314.00;;;;9867014;24;20341;-85
2024/01/05 14:25:04;;;;;;;4.83;2.80;;;;;8.10;99315.00;;;;9859297;29;20240;-86
2024/01/05 14:30:25;;;;;;;4.43;2.63;;;;;8.10;99328.00;;;;9844249;29;20245;-86
2024/01/05 14:35:47;;;;;;;5.57;2.40;;;;;8.00;99329.00;;;;9953957;24;20327;-87
2024/01/05 14:41:08;;;;;;;10.00;2.93;;;;;7.80;99336.00;;;;9864559;29;20857;-83
2024/01/05 14:46:29;;;;;;;5.80;2.13;;;;;7.60;99340.00;;;;9835259;29;20247;-84
2024/01/05 14:51:50;;;;;;;4.43;2.30;;;;;7.40;99336.00;;;;9847703;29;20231;-84
2024/01/05 14:57:12;;;;;;;3.70;2.20;;;;;7.20;99328.00;;;;9851882;29;20671;-86
2024/01/05 15:02:33;;;;;;;2.73;2.23;;;;;7.00;99332.00;;;;9828061;29;20816;-85
2024/01/05 15:07:54;;;;;;;2.33;1.80;;;;;6.80;99346.00;;;;9813243;29;20232;-83
2024/01/05 15:13:15;;;;;;;3.57;1.60;;;;;6.70;99345.00;;;;9819500;29;20243;-83
2024/01/05 15:18:36;;;;;;;1.90;1.70;;;;;6.70;99349.00;;;;9808700;29;21016;-83
2024/01/05 15:23:58;;;;;;;2.30;1.50;;;;;6.60;99369.00;;;;9831120;29;20603;-83
2024/01/05 15:29:20;;;;;;;4.40;2.07;;;;;6.60;99357.00;;;;9823264;29;20240;-82
2024/01/05 15:34:43;;;;;;;3.70;1.90;;;;;6.60;99367.00;;;;9801519;29;20243;-84
2024/01/05 15:40:05;;;;;;;2.40;1.90;;;;;6.50;99392.00;;;;9812466;29;20649;-83
2024/01/05 15:45:28;;;;;;;5.03;2.47;;;;;6.40;99384.00;;;;9810877;29;20271;-84
2024/01/05 15:50:50;;;;;;;3.47;2.27;;;;;6.30;99397.00;;;;9828227;29;20259;-88
2024/01/05 15:56:11;;;;;;;2.67;2.27;;;;;6.20;99397.00;;;;9811988;29;20239;-86
2024/01/05 16:01:32;;;;;;;5.03;2.60;;;;;6.20;99398.00;;;;9814306;29;20236;-86
2024/01/05 16:06:53;;;;;;;3.47;2.27;;;;;6.10;99401.00;;;;9814447;29;20922;-85
2024/01/05 16:12:15;;;;;;;3.93;2.73;;;;;6.10;99410.00;;;;9804465;29;20235;-84
2024/01/05 16:17:36;;;;;;;4.83;2.80;;;;;6.10;99414.00;;;;9826639;29;20236;-86
2024/01/05 16:22:58;;;;;;;5.33;3.30;;;;;6.10;99420.00;;;;9810367;29;20640;-86
2024/01/05 16:28:19;;;;;;;8.07;3.53;;;;;6.10;99426.00;;;;9818883;29;20244;-86
2024/01/05 16:33:40;;;;;;;7.00;3.10;;;;;6.10;99443.00;;;;9818383;29;20236;-85
2024/01/05 16:39:01;;;;;;;5.93;2.77;;;;;6.10;99438.00;;;;9805440;29;20260;-86
2024/01/05 16:44:22;;;;;;;3.00;2.70;;;;;6.10;99443.00;;;;9815033;29;20315;-86
2024/01/05 16:49:44;;;;;;;6.07;3.37;;;;;6.10;99443.00;;;;9816158;30;20812;-85
2024/01/05 16:55:05;;;;;;;5.83;3.40;;;;;6.10;99460.00;;;;9828274;29;20761;-86
2024/01/05 17:00:28;;;;;;;3.67;3.30;;;;;6.10;99455.00;;;;9826331;29;20228;-87
2024/01/05 17:05:49;;;;;;;4.10;3.30;;;;;6.10;99464.00;;;;9798598;29;20597;-85
2024/01/05 17:11:10;;;;;;;4.23;3.50;;;;;6.10;99478.00;;;;9815210;29;20242;-87
2024/01/05 17:16:31;;;;;;;4.30;3.20;;;;;6.10;99473.00;;;;9828117;29;20227;-86
2024/01/05 17:21:52;;;;;;;4.70;3.60;;;;;6.10;99480.00;;;;9824430;29;20229;-87
2024/01/05 17:27:17;;;;;;;5.20;4.10;;;;;6.10;99484.00;;;;9828619;29;20993;-87
2024/01/05 17:32:39;;;;;;;6.97;3.67;;;;;6.10;99493.00;;;;9814429;29;20278;-86
2024/01/05 17:38:01;;;;;;;5.83;4.10;;;;;6.10;99499.00;;;;9814589;29;20286;-85
2024/01/05 17:43:22;;;;;;;4.70;3.50;;;;;6.10;99494.00;;;;9817012;29;20235;-87
2024/01/05 17:48:43;;;;;;;6.33;4.57;;;;;6.10;99503.00;;;;9811663;29;20243;-88
2024/01/05 17:54:05;;;;;;;6.00;4.10;;;;;6.10;99511.00;;;;9802317;29;20240;-87
2024/01/05 17:59:26;;;;;;;6.73;4.50;;;;;6.10;99516.00;;;;9812563;30;20232;-86
2024/01/05 18:04:27;;;;;;;5.20;3.80;;;;;6.20;99522.00;;;;9816384;29;20587;-85
2024/01/05 18:09:31;;;;;;;5.23;4.40;;;;;6.10;99522.00;;;;9805299;29;20315;-80
2024/01/05 18:14:32;;;;;;;7.37;4.07;;;;;6.20;99525.00;;;;9809887;29;20271;-81
2024/01/05 18:19:33;;;;;;;6.20;4.47;;;;;6.20;99525.00;;;;9807940;29;20343;-81
2024/01/05 18:24:35;;;;;;;8.57;4.40;;;;;6.20;99527.00;;;;9822600;29;20231;-82
2024/01/05 18:29:36;;;;;;;9.13;4.07;;;;;6.20;99532.00;;;;9823169;29;20246;-81
2024/01/05 18:34:44;;;;;;;4.27;3.87;;;;;6.20;99534.00;;;;9808355;29;20320;-81
2024/01/05 18:39:45;;;;;;;5.07;4.17;;;;;6.20;99536.00;;;;9820761;29;20232;-82
2024/01/05 18:44:47;;;;;;;7.67;5.10;;;;;6.30;99543.00;;;;9808187;29;20228;-81
2024/01/05 18:49:48;;;;;;;4.23;3.83;;;;;6.30;99546.00;;;;9800658;29;20247;-81
2024/01/05 18:54:49;;;;;;;6.40;3.80;;;;;6.30;99566.00;;;;9789203;29;20653;-82
2024/01/05 18:59:50;;;;;;;5.87;3.97;;;;;6.40;99563.00;;;;9819067;30;20721;-81
2024/01/05 19:04:51;;;;;;;5.73;3.43;;;;;6.40;99568.00;;;;9821216;29;20236;-81
2024/01/05 19:09:53;;;;;;;5.43;3.87;;;;;6.40;99577.00;;;;9819307;29;20239;-82
2024/01/05 19:14:54;;;;;;;4.57;3.80;;;;;6.50;99589.00;;;;9805776;29;20303;-83
2024/01/05 19:19:56;;;;;;;6.33;4.20;;;;;6.50;99599.00;;;;9809753;29;20319;-84
2024/01/05 19:24:58;;;;;;;4.80;4.23;;;;;6.60;99599.00;;;;9796475;29;20298;-85
2024/01/05 19:29:59;;;;;;;11.83;4.67;;;;;6.60;99608.00;;;;9812915;29;20304;-85
2024/01/05 19:35:03;;;;;;;5.10;4.13;;;;;6.60;99621.00;;;;9799470;29;20324;-85
2024/01/05 19:40:05;;;;;;;8.17;4.60;;;;;6.60;99636.00;;;;9802666;29;20220;-84
2024/01/05 19:45:10;;;;;;;7.47;5.00;;;;;6.60;99650.00;;;;9806584;29;20235;-84
2024/01/05 19:50:11;;;;;;;6.37;4.77;;;;;6.60;99653.00;;;;9800117;29;20232;-85
2024/01/05 19:55:13;;;;;;;9.13;5.37;;;;;6.60;99655.00;;;;9821159;29;20805;-85
2024/01/05 20:00:15;;;;;;;7.30;5.53;;;;;6.60;99658.00;;;;9823859;29;20300;-85
2024/01/05 20:05:16;;;;;;;5.67;5.10;;;;;6.60;99665.00;;;;9812204;30;20243;-85
2024/01/05 20:10:17;;;;;;;9.23;6.10;;;;;6.70;99669.00;;;;9812405;30;20897;-84
2024/01/05 20:15:19;;;;;;;11.70;6.13;;;;;6.70;99664.00;;;;9818528;29;20355;-84
2024/01/05 20:20:25;;;;;;;12.80;7.17;;;;;6.70;99685.00;;;;9837054;29;20752;-84
2024/01/05 20:25:27;;;;;;;13.93;7.00;;;;;6.70;99684.00;;;;9814464;29;20236;-83
2024/01/05 20:30:29;;;;;;;12.03;6.90;;;;;6.80;99697.00;;;;9829033;29;20236;-82
2024/01/05 20:35:30;;;;;;;10.17;6.90;;;;;6.80;99698.00;;;;9808781;29;20263;-82
2024/01/05 20:40:31;;;;;;;10.80;7.53;;;;;6.90;99711.00;;;;9812293;29;20664;-83
2024/01/05 20:45:32;;;;;;;15.80;7.60;;;;;6.90;99721.00;;;;9809345;29;20236;-83
2024/01/05 20:50:34;;;;;;;16.27;6.23;;;;;6.90;99719.00;;;;9797914;29;20228;-85
2024/01/05 20:55:35;;;;;;;10.80;6.50;;;;;7.00;99733.00;;;;9808515;29;20255;-83
2024/01/05 21:00:36;;;;;;;12.00;6.83;;;;;7.00;99733.00;;;;9793389;29;20328;-82
2024/01/05 21:05:38;;;;;;;14.40;6.67;;;;;7.00;99733.00;;;;9800975;29;20228;-83
2024/01/05 21:10:40;;;;;;;11.97;6.53;;;;;7.00;99732.00;;;;9817103;29;20767;-84
2024/01/05 21:15:41;;;;;;;9.00;5.07;;;;;7.00;99749.00;;;;9805623;30;20960;-83
2024/01/05 21:20:42;;;;;;;7.40;4.00;;;;;6.90;99739.00;;;;9811552;29;20239;-83
2024/01/05 21:25:43;;;;;;;11.70;5.73;;;;;6.90;99754.00;;;;9822557;29;20232;-83
2024/01/05 21:30:46;;;;;;;11.93;3.90;;;;;6.90;99765.00;;;;9805837;30;20236;-84
2024/01/05 21:35:49;;;;;;;6.97;3.43;;;;;6.80;99774.00;;;;9798870;29;20961;-84
2024/01/05 21:40:50;;;;;;;9.67;3.40;;;;;6.80;99769.00;;;;9821168;29;20240;-83
2024/01/05 21:45:53;;;;;;;11.47;4.17;;;;;6.80;99781.00;;;;9807610;29;20236;-83
2024/01/05 21:50:54;;;;;;;14.70;5.50;;;;;6.70;99779.00;;;;9835359;30;20289;-85
2024/01/05 21:55:56;;;;;;;12.10;4.40;;;;;6.70;99778.00;;;;9802295;29;20762;-84
2024/01/05 22:00:57;;;;;;;11.37;4.00;;;;;6.70;99780.00;;;;9796792;29;20384;-83
2024/01/05 22:05:58;;;;;;;13.70;4.30;;;;;6.70;99787.00;;;;9811205;29;20235;-83
2024/01/05 22:10:59;;;;;;;12.33;5.03;;;;;6.70;99776.00;;;;9807255;29;20291;-83
2024/01/05 22:16:02;;;;;;;15.27;5.70;;;;;6.70;99782.00;;;;9821868;29;20233;-83
2024/01/05 22:21:13;;;;;;;12.40;5.60;;;;;6.70;99788.00;;;;9819666;30;20240;-85
2024/01/05 22:26:22;;;;;;;16.30;5.60;;;;;6.80;99792.00;;;;9817466;29;20260;-84
2024/01/05 22:31:23;;;;;;;11.83;5.90;;;;;6.80;99799.00;;;;9812447;29;20256;-84
2024/01/05 22:36:25;;;;;;;16.20;5.73;;;;;6.80;99810.00;;;;9827036;29;20248;-82
2024/01/05 22:41:26;;;;;;;12.17;5.90;;;;;6.80;99811.00;;;;9811630;29;20956;-82
2024/01/05 22:46:28;;;;;;;12.73;6.63;;;;;6.80;99826.00;;;;9819947;29;20232;-83
2024/01/05 22:51:29;;;;;;;17.53;7.23;;;;;6.80;99823.00;;;;9815838;30;20267;-87
2024/01/05 22:56:30;;;;;;;9.80;5.10;;;;;6.70;99827.00;;;;9833241;30;20236;-87
2024/01/05 23:01:32;;;;;;;12.33;5.77;;;;;6.70;99847.00;;;;9828227;30;20235;-85
2024/01/05 23:06:33;;;;;;;6.97;4.90;;;;;6.70;99839.00;;;;9866817;29;20227;-84
2024/01/05 23:11:34;;;;;;;9.80;5.53;;;;;6.60;99847.00;;;;10039651;24;20417;-86
2024/01/05 23:16:36;;;;;;;9.17;5.20;;;;;6.60;99853.00;;;;9912269;29;20238;-86
2024/01/05 23:21:37;;;;;;;8.47;5.37;;;;;6.60;99857.00;;;;9907616;29;20669;-88
2024/01/05 23:26:38;;;;;;;9.13;5.83;;;;;6.60;99850.00;;;;9901635;29;20251;-88
2024/01/05 23:31:40;;;;;;;8.93;5.33;;;;;6.50;99864.00;;;;9915041;29;20257;-85
2024/01/05 23:36:41;;;;;;;8.30;5.40;;;;;6.50;99867.00;;;;9928078;29;20224;-86
2024/01/05 23:41:43;;;;;;;8.63;4.37;;;;;6.50;99870.00;;;;9888223;29;20234;-88
2024/01/05 23:46:44;;;;;;;8.10;3.83;;;;;6.50;99873.00;;;;9905751;29;20238;-87
2024/01/05 23:51:46;;;;;;;10.00;4.70;;;;;6.50;99877.00;;;;9900931;29;20238;-88
2024/01/05 23:56:47;;;;;;;9.50;5.00;;;;;6.40;99867.00;;;;9897542;29;20249;-86
